createdAt,value
2016-05-19T00:02:27.015Z,11.9
2016-05-19T00:05:44.883Z,11.9
2016-05-19T00:08:48.500Z,12
2016-05-19T00:12:01.774Z,12
2016-05-19T00:15:15.236Z,12
2016-05-19T00:18:28.574Z,11.9
2016-05-19T00:21:46.707Z,11.9
2016-05-19T00:24:50.388Z,11.9
2016-05-19T00:28:03.629Z,11.9
2016-05-19T00:31:16.965Z,11.9
2016-05-19T00:34:29.632Z,11.9
2016-05-19T00:37:47.922Z,11.9
2016-05-19T00:40:51.727Z,11.9
2016-05-19T00:44:05.000Z,11.9
2016-05-19T00:47:18.055Z,11.9
2016-05-19T00:50:30.707Z,11.9
2016-05-19T00:53:47.996Z,11.8
2016-05-19T00:56:51.646Z,11.8
2016-05-19T01:00:05.013Z,11.8
2016-05-19T01:03:18.301Z,11.8
2016-05-19T01:06:31.578Z,11.7
2016-05-19T01:09:49.555Z,11.7
2016-05-19T01:12:53.219Z,11.7
2016-05-19T01:16:06.758Z,11.7
2016-05-19T01:19:19.988Z,11.7
2016-05-19T01:22:32.684Z,11.7
2016-05-19T01:25:50.957Z,11.7
2016-05-19T01:28:54.621Z,11.6
2016-05-19T01:32:07.723Z,11.6
2016-05-19T01:35:20.937Z,11.6
2016-05-19T01:38:33.759Z,11.6
2016-05-19T01:41:47.062Z,11.5
2016-05-19T01:45:00.415Z,11.5
2016-05-19T01:48:11.578Z,11.5
2016-05-19T01:51:24.761Z,11.5
2016-05-19T01:54:44.566Z,11.5
2016-05-19T01:57:48.465Z,11.5
2016-05-19T02:01:01.535Z,11.5
2016-05-19T02:04:14.278Z,11.5
2016-05-19T02:07:27.164Z,11.5
2016-05-19T02:10:45.470Z,11.4
2016-05-19T02:13:49.306Z,11.4
2016-05-19T02:17:02.531Z,11.4
2016-05-19T02:20:15.868Z,11.4
2016-05-19T02:23:29.410Z,11.3
2016-05-19T02:26:47.738Z,11.3
2016-05-19T02:29:51.575Z,11.3
2016-05-19T02:33:04.879Z,11.3
2016-05-19T02:36:18.201Z,11.3
2016-05-19T02:39:31.570Z,11.3
2016-05-19T02:42:50.021Z,11.3
2016-05-19T02:45:53.829Z,11.3
2016-05-19T02:49:07.180Z,11.3
2016-05-19T02:52:20.297Z,11.3
2016-05-19T02:55:33.593Z,11.2
2016-05-19T02:58:51.873Z,11.2
2016-05-19T03:01:55.619Z,11.2
2016-05-19T03:05:08.879Z,11.2
2016-05-19T03:08:22.091Z,11.2
2016-05-19T03:11:35.056Z,11.2
2016-05-19T03:14:48.206Z,11.2
2016-05-19T03:18:01.839Z,11.2
2016-05-19T03:21:14.675Z,11.1
2016-05-19T03:24:28.341Z,11.2
2016-05-19T03:27:46.240Z,11.1
2016-05-19T03:30:47.920Z,11.1
2016-05-19T03:34:03.538Z,11.1
2016-05-19T03:37:16.781Z,11.1
2016-05-19T03:40:29.806Z,11.1
2016-05-19T03:43:48.002Z,11.1
2016-05-19T03:46:51.807Z,11.1
2016-05-19T03:50:04.956Z,11.1
2016-05-19T03:53:18.027Z,11.1
2016-05-19T03:56:31.787Z,11.1
2016-05-19T03:59:50.326Z,11.1
2016-05-19T04:02:54.178Z,11.2
2016-05-19T04:06:06.092Z,11.1
2016-05-19T04:09:19.273Z,11.1
2016-05-19T04:12:32.643Z,11.1
2016-05-19T04:15:50.853Z,11.1
2016-05-19T04:18:54.596Z,11.2
2016-05-19T04:22:07.635Z,11.2
2016-05-19T04:25:24.941Z,11.1
2016-05-19T04:28:34.405Z,11.2
2016-05-19T04:31:47.601Z,11.2
2016-05-19T04:35:00.920Z,11.2
2016-05-19T04:38:13.491Z,11.2
2016-05-19T04:41:26.581Z,11.2
2016-05-19T04:44:45.025Z,11.2
2016-05-19T04:47:48.769Z,11.2
2016-05-19T04:51:01.761Z,11.2
2016-05-19T04:54:14.799Z,11.3
2016-05-19T04:57:28.249Z,11.3
2016-05-19T05:00:46.507Z,11.3
2016-05-19T05:03:50.373Z,11.3
2016-05-19T05:07:03.616Z,11.4
2016-05-19T05:10:17.078Z,11.4
2016-05-19T05:13:30.073Z,11.4
2016-05-19T05:16:48.362Z,11.5
2016-05-19T05:19:52.026Z,11.5
2016-05-19T05:23:05.455Z,11.5
2016-05-19T05:26:18.308Z,11.6
2016-05-19T05:29:31.600Z,11.6
2016-05-19T05:32:49.780Z,11.6
2016-05-19T05:35:53.679Z,11.6
2016-05-19T05:39:06.812Z,11.7
2016-05-19T05:42:18.257Z,11.7
2016-05-19T05:45:33.378Z,11.8
2016-05-19T05:48:52.025Z,11.8
2016-05-19T05:51:55.816Z,11.9
2016-05-19T05:55:06.542Z,11.9
2016-05-19T05:58:21.957Z,12
2016-05-19T06:01:35.405Z,12
2016-05-19T06:04:48.866Z,12.1
2016-05-19T06:08:02.359Z,12.2
2016-05-19T06:11:15.663Z,12.2
2016-05-19T06:14:28.781Z,12.3
2016-05-19T06:17:47.182Z,12.4
2016-05-19T06:20:51.049Z,12.5
2016-05-19T06:24:04.652Z,12.6
2016-05-19T06:27:17.785Z,12.7
2016-05-19T06:30:31.308Z,12.8
2016-05-19T06:33:50.085Z,12.9
2016-05-19T06:36:53.937Z,13.1
2016-05-19T06:40:07.413Z,13.3
2016-05-19T06:43:20.781Z,13.4
2016-05-19T06:46:34.370Z,13.6
2016-05-19T06:49:52.830Z,13.8
2016-05-19T06:52:56.964Z,14.1
2016-05-19T06:56:11.066Z,14.5
2016-05-19T06:59:24.338Z,14.7
2016-05-19T07:02:37.990Z,15.1
2016-05-19T07:05:51.640Z,15.3
2016-05-19T07:09:05.413Z,15.6
2016-05-19T07:12:18.906Z,15.6
2016-05-19T07:15:32.585Z,15.6
2016-05-19T07:18:51.393Z,15.8
2016-05-19T07:21:55.823Z,16.3
2016-05-19T07:25:09.597Z,17
2016-05-19T07:28:23.292Z,17.8
2016-05-19T07:31:37.522Z,18.3
2016-05-19T07:34:51.499Z,19
2016-05-19T07:38:05.429Z,19.7
2016-05-19T07:41:20.374Z,20.2
2016-05-19T07:44:33.523Z,20.5
2016-05-19T07:47:52.548Z,21.2
2016-05-19T07:50:57.636Z,21.7
2016-05-19T07:54:11.815Z,21.9
2016-05-19T07:57:26.152Z,21.9
2016-05-19T08:00:45.178Z,22.2
2016-05-19T08:03:50.091Z,22
2016-05-19T08:07:04.100Z,22
2016-05-19T08:10:18.062Z,22.1
2016-05-19T08:13:32.460Z,22.9
2016-05-19T08:16:52.190Z,24.3
2016-05-19T08:19:57.339Z,24.4
2016-05-19T08:23:11.800Z,25.1
2016-05-19T08:26:25.744Z,24.9
2016-05-19T08:29:45.209Z,25.3
2016-05-19T08:32:50.264Z,25.6
2016-05-19T08:36:04.835Z,26.5
2016-05-19T08:39:18.890Z,26.3
2016-05-19T08:42:32.413Z,26.3
2016-05-19T08:45:51.799Z,26.7
2016-05-19T08:48:56.947Z,26.9
2016-05-19T08:52:11.628Z,27.3
2016-05-19T08:55:26.714Z,27.2
2016-05-19T08:58:45.677Z,27.7
2016-05-19T09:01:50.858Z,28.6
2016-05-19T09:05:05.397Z,28.8
2016-05-19T09:08:20.248Z,29.5
2016-05-19T09:11:34.647Z,30.5
2016-05-19T09:14:49.642Z,30.7
2016-05-19T09:18:03.479Z,30.2
2016-05-19T09:21:17.706Z,30
2016-05-19T09:24:32.511Z,29.7
2016-05-19T09:27:51.786Z,30.3
2016-05-19T09:30:57.155Z,30.9
2016-05-19T09:34:11.491Z,30.8
2016-05-19T09:37:25.591Z,30.3
2016-05-19T09:40:44.775Z,30.9
2016-05-19T09:43:49.565Z,30
2016-05-19T09:47:03.244Z,28.7
2016-05-19T09:50:17.284Z,29.4
2016-05-19T09:53:31.714Z,29.4
2016-05-19T09:56:50.131Z,29.9
2016-05-19T09:59:55.186Z,29.8
2016-05-19T10:03:09.084Z,30.9
2016-05-19T10:06:24.889Z,32.6
2016-05-19T10:09:45.838Z,32.7
2016-05-19T10:12:51.924Z,30.3
2016-05-19T10:16:07.135Z,28.3
2016-05-19T10:19:22.815Z,28.8
2016-05-19T10:22:43.245Z,29.2
2016-05-19T10:25:49.146Z,29
2016-05-19T10:29:04.279Z,27.3
2016-05-19T10:32:19.334Z,25.6
2016-05-19T10:35:34.389Z,24.9
2016-05-19T10:38:49.353Z,24.4
2016-05-19T10:42:04.283Z,23.9
2016-05-19T10:45:19.213Z,23.8
2016-05-19T10:48:34.080Z,23.9
2016-05-19T10:51:49.169Z,23.6
2016-05-19T10:55:01.099Z,23
2016-05-19T10:58:15.809Z,22.7
2016-05-19T11:01:30.584Z,22.2
2016-05-19T11:04:50.141Z,21.6
2016-05-19T11:07:54.744Z,21.1
2016-05-19T11:11:08.157Z,21.1
2016-05-19T11:14:21.791Z,21.2
2016-05-19T11:17:35.190Z,21.4
2016-05-19T11:20:48.841Z,21.3
2016-05-19T11:24:02.380Z,21.2
2016-05-19T11:27:15.701Z,21.1
2016-05-19T11:30:29.459Z,21
2016-05-19T11:33:48.016Z,20.8
2016-05-19T11:36:51.431Z,20.5
2016-05-19T11:40:04.422Z,20.1
2016-05-19T11:43:17.838Z,19.9
2016-05-19T11:46:30.674Z,19.8
2016-05-19T11:49:49.172Z,19.8
2016-05-19T11:52:52.845Z,19.9
2016-05-19T11:56:06.083Z,20
2016-05-19T11:59:17.358Z,20
2016-05-19T12:02:33.224Z,20
2016-05-19T12:05:51.539Z,20
2016-05-19T12:08:55.393Z,20
2016-05-19T12:12:08.746Z,19.9
2016-05-19T12:15:22.677Z,19.8
2016-05-19T12:18:31.983Z,19.8
2016-05-19T12:21:50.368Z,19.8
2016-05-19T12:24:54.001Z,19.6
2016-05-19T12:28:07.338Z,19.5
2016-05-19T12:31:20.565Z,19.5
2016-05-19T12:34:33.635Z,19.6
2016-05-19T12:37:52.162Z,19.6
2016-05-19T12:40:55.920Z,19.7
2016-05-19T12:44:09.428Z,19.8
2016-05-19T12:47:22.999Z,19.9
2016-05-19T12:50:36.178Z,20
2016-05-19T12:53:50.002Z,19.9
2016-05-19T12:57:03.041Z,20
2016-05-19T13:00:16.424Z,20.1
2016-05-19T13:03:30.417Z,20.1
2016-05-19T13:06:48.284Z,20
2016-05-19T13:09:51.717Z,20
2016-05-19T13:13:05.100Z,19.9
2016-05-19T13:16:18.419Z,19.8
2016-05-19T13:19:31.725Z,19.6
2016-05-19T13:22:49.811Z,19.5
2016-05-19T13:25:53.197Z,19.5
2016-05-19T13:29:06.501Z,19.5
2016-05-19T13:32:19.698Z,19.4
2016-05-19T13:35:33.159Z,19.4
2016-05-19T13:38:51.620Z,19.3
2016-05-19T13:41:55.193Z,19.3
2016-05-19T13:45:08.389Z,19.3
2016-05-19T13:48:26.616Z,19.3
2016-05-19T13:51:30.155Z,19.4
2016-05-19T13:54:44.913Z,19.4
2016-05-19T13:57:53.062Z,19.4
2016-05-19T14:00:56.775Z,19.4
2016-05-19T14:04:09.846Z,19.4
2016-05-19T14:07:23.042Z,19.4
2016-05-19T14:10:34.176Z,19.3
2016-05-19T14:13:49.621Z,19.4
2016-05-19T14:17:02.866Z,19.4
2016-05-19T14:20:16.295Z,19.4
2016-05-19T14:23:29.569Z,19.5
2016-05-19T14:26:47.468Z,19.4
2016-05-19T14:29:50.944Z,19.3
2016-05-19T14:33:03.877Z,19.1
2016-05-19T14:36:16.885Z,19
2016-05-19T14:39:30.050Z,18.9
2016-05-19T14:42:47.761Z,18.7
2016-05-19T14:45:51.081Z,18.7
2016-05-19T14:49:04.264Z,18.6
2016-05-19T14:52:17.272Z,18.5
2016-05-19T14:55:30.249Z,18.4
2016-05-19T14:58:48.444Z,18.3
2016-05-19T15:01:51.687Z,18.3
2016-05-19T15:05:04.791Z,18.2
2016-05-19T15:08:17.643Z,18.2
2016-05-19T15:11:30.620Z,18.1
2016-05-19T15:14:48.534Z,18.1
2016-05-19T15:17:51.903Z,18.1
2016-05-19T15:21:05.116Z,18.1
2016-05-19T15:24:18.530Z,18.1
2016-05-19T15:27:29.085Z,18.2
2016-05-19T15:30:48.640Z,18.2
2016-05-19T15:33:51.898Z,18.2
2016-05-19T15:37:04.800Z,18.2
2016-05-19T15:40:17.823Z,18.3
2016-05-19T15:43:28.518Z,18.3
2016-05-19T15:46:48.152Z,18.4
2016-05-19T15:49:51.300Z,18.4
2016-05-19T15:53:03.811Z,18.4
2016-05-19T15:56:16.507Z,18.4
2016-05-19T15:59:29.421Z,18.4
2016-05-19T16:02:47.194Z,18.4
2016-05-19T16:05:50.234Z,18.4
2016-05-19T16:09:03.151Z,18.4
2016-05-19T16:12:16.346Z,18.5
2016-05-19T16:15:29.370Z,18.5
2016-05-19T16:18:46.847Z,18.5
2016-05-19T16:21:50.356Z,18.5
2016-05-19T16:25:03.710Z,18.5
2016-05-19T16:28:16.936Z,18.5
2016-05-19T16:31:30.102Z,18.5
2016-05-19T16:34:48.485Z,18.5
2016-05-19T16:37:51.899Z,18.5
2016-05-19T16:41:05.128Z,18.4
2016-05-19T16:44:18.182Z,18.4
2016-05-19T16:47:30.691Z,18.3
2016-05-19T16:50:48.699Z,18.3
2016-05-19T16:53:51.831Z,18.3
2016-05-19T16:57:04.843Z,18.3
2016-05-19T17:00:17.788Z,18.3
2016-05-19T17:03:30.937Z,18.2
2016-05-19T17:06:48.555Z,18.2
2016-05-19T17:09:50.157Z,18.2
2016-05-19T17:13:04.933Z,18.1
2016-05-19T17:16:17.910Z,18.1
2016-05-19T17:19:31.120Z,18.1
2016-05-19T17:22:49.253Z,18
2016-05-19T17:25:52.653Z,18
2016-05-19T17:29:05.148Z,18
2016-05-19T17:32:17.891Z,17.9
2016-05-19T17:35:31.149Z,17.9
2016-05-19T17:38:48.890Z,17.9
2016-05-19T17:41:51.914Z,17.8
2016-05-19T17:45:04.784Z,17.7
2016-05-19T17:48:17.620Z,17.6
2016-05-19T17:51:30.706Z,17.5
2016-05-19T17:54:48.496Z,17.5
2016-05-19T17:57:51.551Z,17.4
2016-05-19T18:01:04.437Z,17.4
2016-05-19T18:04:15.539Z,17.3
2016-05-19T18:07:30.890Z,17.3
2016-05-19T18:10:48.977Z,17.2
2016-05-19T18:13:52.375Z,17.2
2016-05-19T18:17:01.993Z,17.2
2016-05-19T18:20:13.034Z,17.1
2016-05-19T18:23:28.027Z,17.1
2016-05-19T18:26:46.114Z,17.1
2016-05-19T18:29:49.497Z,17.1
2016-05-19T18:33:02.614Z,17.1
2016-05-19T18:36:15.827Z,17
2016-05-19T18:39:28.711Z,17
2016-05-19T18:42:46.532Z,16.9
2016-05-19T18:45:49.524Z,16.8
2016-05-19T18:49:02.531Z,16.8
2016-05-19T18:52:15.418Z,16.7
2016-05-19T18:55:28.192Z,16.7
2016-05-19T18:58:45.965Z,16.6
2016-05-19T19:01:54.004Z,16.8
2016-05-19T19:04:57.231Z,16.8
2016-05-19T19:08:09.961Z,16.8
2016-05-19T19:11:22.469Z,16.7
2016-05-19T19:14:35.196Z,16.5
2016-05-19T19:17:52.844Z,16.4
2016-05-19T19:20:55.852Z,16.3
2016-05-19T19:24:08.738Z,16.1
2016-05-19T19:27:21.434Z,15.9
2016-05-19T19:30:34.051Z,15.8
